createdAt,value
2017-08-27T00:00:11.852Z,18.00
2017-08-27T00:02:40.440Z,19.70
2017-08-27T00:05:08.302Z,20.03
2017-08-27T00:07:35.937Z,19.07
2017-08-27T00:10:03.466Z,21.47
2017-08-27T00:12:31.378Z,20.50
2017-08-27T00:14:59.057Z,20.13
2017-08-27T00:17:26.618Z,19.90
2017-08-27T00:19:54.155Z,18.77
2017-08-27T00:22:21.706Z,19.63
2017-08-27T00:24:49.243Z,22.10
2017-08-27T00:27:16.810Z,22.10
2017-08-27T00:29:44.403Z,21.07
2017-08-27T00:32:11.927Z,22.00
2017-08-27T00:34:39.482Z,21.07
2017-08-27T00:37:07.125Z,20.47
2017-08-27T00:39:34.677Z,19.67
2017-08-27T00:42:02.215Z,20.27
2017-08-27T00:44:29.762Z,21.90
2017-08-27T00:46:57.300Z,21.37
2017-08-27T00:49:24.850Z,20.33
2017-08-27T00:51:52.383Z,22.13
2017-08-27T00:54:20.171Z,21.07
2017-08-27T00:56:47.707Z,21.00
2017-08-27T00:59:15.266Z,21.77
2017-08-27T01:01:42.797Z,20.40
2017-08-27T01:04:10.444Z,20.87
2017-08-27T01:06:37.971Z,21.83
2017-08-27T01:09:05.523Z,20.80
2017-08-27T01:11:33.054Z,20.40
2017-08-27T01:14:00.601Z,21.20
2017-08-27T01:16:28.135Z,20.97
2017-08-27T01:18:55.691Z,20.87
2017-08-27T01:21:23.228Z,20.77
2017-08-27T01:23:50.786Z,22.13
2017-08-27T01:26:18.315Z,20.10
2017-08-27T01:28:45.886Z,19.43
2017-08-27T01:31:14.359Z,19.57
2017-08-27T01:33:41.897Z,18.83
2017-08-27T01:36:09.451Z,19.13
2017-08-27T01:38:36.982Z,19.47
2017-08-27T01:41:04.539Z,18.67
2017-08-27T01:43:32.070Z,19.03
2017-08-27T01:45:59.623Z,19.27
2017-08-27T01:48:27.154Z,19.00
2017-08-27T01:50:54.714Z,18.90
2017-08-27T01:53:22.277Z,18.60
2017-08-27T01:55:49.833Z,20.20
2017-08-27T01:58:17.374Z,18.83
2017-08-27T02:00:44.927Z,19.60
2017-08-27T02:03:12.463Z,18.33
2017-08-27T02:05:40.025Z,18.33
2017-08-27T02:08:07.554Z,21.60
2017-08-27T02:10:35.112Z,19.60
2017-08-27T02:13:02.661Z,27.13
2017-08-27T02:15:30.215Z,31.37
2017-08-27T02:17:57.747Z,27.33
2017-08-27T02:20:25.302Z,27.97
2017-08-27T02:22:52.835Z,33.67
2017-08-27T02:25:20.382Z,36.07
2017-08-27T02:27:47.915Z,35.40
2017-08-27T02:30:15.475Z,35.87
2017-08-27T02:32:43.075Z,34.07
2017-08-27T02:35:10.608Z,30.50
2017-08-27T02:37:38.168Z,30.37
2017-08-27T02:40:05.694Z,30.87
2017-08-27T02:42:33.238Z,30.60
2017-08-27T02:45:00.766Z,31.20
2017-08-27T02:47:28.326Z,29.40
2017-08-27T02:49:55.863Z,30.30
2017-08-27T02:52:23.410Z,33.13
2017-08-27T02:54:50.938Z,28.07
2017-08-27T02:57:18.491Z,30.77
2017-08-27T02:59:46.789Z,32.00
2017-08-27T03:02:14.334Z,29.03
2017-08-27T03:04:41.867Z,28.47
2017-08-27T03:07:09.419Z,26.97
2017-08-27T03:09:36.955Z,27.10
2017-08-27T03:12:04.506Z,25.60
2017-08-27T03:14:32.031Z,29.90
2017-08-27T03:16:59.583Z,28.50
2017-08-27T03:19:27.121Z,29.37
2017-08-27T03:21:54.688Z,30.57
2017-08-27T03:24:22.223Z,33.93
2017-08-27T03:26:49.770Z,31.37
2017-08-27T03:29:17.307Z,25.63
2017-08-27T03:31:44.896Z,24.40
2017-08-27T03:34:12.419Z,28.47
2017-08-27T03:36:39.946Z,26.30
2017-08-27T03:39:07.506Z,25.33
2017-08-27T03:41:35.039Z,28.77
2017-08-27T03:44:02.586Z,28.10
2017-08-27T03:46:30.119Z,27.20
2017-08-27T03:48:57.678Z,27.13
2017-08-27T03:51:25.211Z,28.40
2017-08-27T03:53:52.770Z,27.80
2017-08-27T03:56:20.308Z,26.20
2017-08-27T03:58:47.864Z,25.80
2017-08-27T04:01:15.390Z,24.47
2017-08-27T04:03:42.949Z,26.30
2017-08-27T04:06:10.473Z,28.00
2017-08-27T04:08:38.022Z,24.80
2017-08-27T04:11:05.546Z,22.73
2017-08-27T04:13:33.094Z,23.10
2017-08-27T04:16:00.625Z,21.83
2017-08-27T04:18:28.171Z,23.83
2017-08-27T04:20:55.694Z,22.93
2017-08-27T04:23:23.241Z,22.90
2017-08-27T04:25:50.772Z,23.77
2017-08-27T04:28:18.327Z,23.33
2017-08-27T04:30:45.855Z,22.60
2017-08-27T04:33:13.414Z,24.87
2017-08-27T04:35:40.947Z,26.80
2017-08-27T04:38:08.490Z,25.23
2017-08-27T04:40:36.051Z,26.30
2017-08-27T04:43:03.578Z,27.70
2017-08-27T04:45:31.122Z,25.70
2017-08-27T04:47:58.654Z,27.93
2017-08-27T04:50:26.206Z,26.37
2017-08-27T04:52:53.735Z,27.70
2017-08-27T04:55:21.289Z,27.23
2017-08-27T04:57:48.815Z,28.23
2017-08-27T05:00:16.366Z,25.43
2017-08-27T05:02:43.895Z,26.23
2017-08-27T05:05:11.438Z,27.23
2017-08-27T05:07:38.963Z,24.07
2017-08-27T05:10:06.519Z,25.27
2017-08-27T05:12:34.042Z,24.37
2017-08-27T05:15:01.592Z,22.07
2017-08-27T05:17:29.117Z,23.37
2017-08-27T05:19:56.666Z,24.13
2017-08-27T05:22:24.202Z,22.40
2017-08-27T05:24:51.756Z,21.40
2017-08-27T05:27:19.299Z,22.30
2017-08-27T05:29:46.847Z,22.00
2017-08-27T05:32:14.370Z,21.10
2017-08-27T05:34:41.940Z,21.20
2017-08-27T05:37:09.471Z,21.27
2017-08-27T05:39:36.995Z,20.53
2017-08-27T05:42:04.541Z,20.90
2017-08-27T05:44:32.070Z,21.23
2017-08-27T05:46:59.621Z,20.87
2017-08-27T05:49:27.155Z,19.97
2017-08-27T05:51:54.717Z,20.43
2017-08-27T05:54:22.272Z,21.80
2017-08-27T05:56:49.827Z,20.33
2017-08-27T05:59:17.353Z,21.20
2017-08-27T06:01:44.906Z,22.60
2017-08-27T06:04:12.439Z,18.80
2017-08-27T06:06:39.994Z,19.77
2017-08-27T06:09:07.523Z,18.77
2017-08-27T06:11:35.087Z,19.03
2017-08-27T06:14:02.619Z,19.63
2017-08-27T06:16:30.170Z,19.90
2017-08-27T06:18:57.704Z,19.90
2017-08-27T06:21:25.266Z,18.80
2017-08-27T06:23:52.799Z,18.73
2017-08-27T06:26:20.350Z,20.07
2017-08-27T06:28:47.887Z,20.27
2017-08-27T06:31:15.448Z,21.30
2017-08-27T06:33:42.977Z,22.17
2017-08-27T06:36:10.546Z,21.43
2017-08-27T06:38:38.162Z,19.50
2017-08-27T06:41:05.692Z,19.43
2017-08-27T06:43:33.245Z,19.50
2017-08-27T06:46:00.779Z,19.43
2017-08-27T06:48:28.331Z,19.63
2017-08-27T06:50:55.883Z,20.50
2017-08-27T06:53:23.443Z,20.60
2017-08-27T06:55:50.974Z,19.10
2017-08-27T06:58:18.535Z,20.77
2017-08-27T07:00:46.071Z,19.60
2017-08-27T07:03:13.626Z,18.53
2017-08-27T07:05:41.156Z,18.90
2017-08-27T07:08:08.724Z,19.03
2017-08-27T07:10:36.255Z,19.57
2017-08-27T07:13:03.820Z,20.57
2017-08-27T07:15:31.347Z,18.27
2017-08-27T07:17:58.905Z,17.97
2017-08-27T07:20:26.449Z,19.30
2017-08-27T07:22:54.014Z,19.60
2017-08-27T07:25:21.551Z,19.57
2017-08-27T07:27:49.097Z,20.37
2017-08-27T07:30:16.635Z,20.90
2017-08-27T07:32:44.195Z,19.57
2017-08-27T07:35:11.723Z,18.43
2017-08-27T07:37:39.294Z,19.30
2017-08-27T07:40:06.830Z,17.60
2017-08-27T07:42:34.361Z,18.13
2017-08-27T07:45:01.916Z,19.17
2017-08-27T07:47:29.509Z,19.10
2017-08-27T07:49:57.122Z,17.63
2017-08-27T07:52:24.654Z,20.10
2017-08-27T07:54:52.215Z,20.90
2017-08-27T07:57:19.742Z,20.70
2017-08-27T07:59:47.289Z,19.50
2017-08-27T08:02:14.831Z,19.80
2017-08-27T08:04:42.383Z,19.60
2017-08-27T08:07:09.916Z,20.30
2017-08-27T08:09:37.475Z,21.27
2017-08-27T08:12:05.002Z,18.53
2017-08-27T08:14:32.568Z,18.90
2017-08-27T08:17:00.104Z,20.63
2017-08-27T08:19:27.654Z,20.40
2017-08-27T08:21:55.182Z,21.87
2017-08-27T08:24:22.739Z,20.90
2017-08-27T08:26:50.278Z,20.13
2017-08-27T08:29:17.835Z,23.00
2017-08-27T08:31:45.367Z,23.70
2017-08-27T08:34:12.923Z,22.67
2017-08-27T08:36:40.447Z,20.50
2017-08-27T08:39:08.003Z,20.70
2017-08-27T08:41:35.530Z,20.20
2017-08-27T08:44:03.058Z,18.63
2017-08-27T08:46:30.607Z,18.47
2017-08-27T08:48:58.134Z,20.77
2017-08-27T08:51:25.686Z,18.50
2017-08-27T08:53:53.224Z,20.03
2017-08-27T08:56:20.784Z,21.20
2017-08-27T08:58:48.316Z,18.93
2017-08-27T09:01:15.873Z,20.50
2017-08-27T09:03:43.404Z,18.33
2017-08-27T09:06:10.963Z,19.47
2017-08-27T09:08:38.490Z,24.43
2017-08-27T09:11:06.047Z,20.10
2017-08-27T09:13:33.583Z,20.57
2017-08-27T09:16:01.135Z,20.33
2017-08-27T09:18:28.666Z,22.03
2017-08-27T09:20:56.223Z,21.13
2017-08-27T09:23:23.750Z,20.43
2017-08-27T09:25:51.313Z,20.17
2017-08-27T09:28:18.838Z,18.03
2017-08-27T09:30:46.390Z,15.03
2017-08-27T09:33:13.915Z,17.60
2017-08-27T09:35:41.474Z,14.53
2017-08-27T09:38:09.003Z,18.17
2017-08-27T09:40:36.563Z,20.60
2017-08-27T09:43:04.087Z,16.80
2017-08-27T09:45:31.619Z,17.73
2017-08-27T09:47:59.176Z,17.60
2017-08-27T09:50:26.716Z,18.50
2017-08-27T09:52:54.280Z,15.83
2017-08-27T09:55:21.820Z,13.70
2017-08-27T09:57:49.381Z,15.87
2017-08-27T10:00:16.914Z,17.13
2017-08-27T10:02:44.466Z,13.87
2017-08-27T10:05:11.999Z,17.20
2017-08-27T10:07:39.559Z,13.73
2017-08-27T10:10:07.088Z,14.20
2017-08-27T10:12:34.650Z,14.60
2017-08-27T10:15:02.186Z,14.07
2017-08-27T10:17:29.735Z,15.40
2017-08-27T10:19:57.267Z,15.10
2017-08-27T10:22:24.826Z,17.70
2017-08-27T10:24:53.123Z,16.90
2017-08-27T10:27:20.689Z,14.23
2017-08-27T10:29:48.231Z,15.30
2017-08-27T10:32:15.783Z,16.13
2017-08-27T10:34:43.311Z,14.80
2017-08-27T10:37:10.864Z,14.97
2017-08-27T10:39:38.395Z,16.80
2017-08-27T10:42:05.971Z,15.00
2017-08-27T10:44:33.514Z,15.23
2017-08-27T10:47:01.047Z,14.67
2017-08-27T10:49:28.590Z,12.97
2017-08-27T10:51:56.135Z,15.10
2017-08-27T10:54:23.691Z,13.60
2017-08-27T10:56:51.214Z,13.53
2017-08-27T10:59:18.786Z,12.73
2017-08-27T11:01:46.315Z,12.90
2017-08-27T11:04:13.875Z,12.60
2017-08-27T11:06:41.404Z,11.67
2017-08-27T11:09:08.959Z,12.67
2017-08-27T11:11:36.489Z,14.03
2017-08-27T11:14:04.046Z,13.83
2017-08-27T11:16:31.570Z,11.77
2017-08-27T11:18:59.123Z,12.80
2017-08-27T11:21:26.659Z,12.57
2017-08-27T11:23:54.218Z,12.07
2017-08-27T11:26:21.742Z,12.40
2017-08-27T11:28:49.299Z,11.37
2017-08-27T11:31:16.831Z,12.03
2017-08-27T11:33:44.395Z,11.50
2017-08-27T11:36:11.919Z,12.03
2017-08-27T11:38:39.474Z,11.70
2017-08-27T11:41:07.007Z,13.50
2017-08-27T11:43:35.308Z,12.40
2017-08-27T11:46:02.864Z,10.80
2017-08-27T11:48:30.398Z,11.53
2017-08-27T11:50:57.954Z,11.70
2017-08-27T11:53:25.492Z,12.33
2017-08-27T11:55:53.062Z,11.50
2017-08-27T11:58:20.591Z,11.57
2017-08-27T12:00:48.146Z,11.97
2017-08-27T12:03:15.678Z,11.93
2017-08-27T12:05:43.230Z,11.43
2017-08-27T12:08:11.527Z,10.10
2017-08-27T12:10:39.084Z,10.87
2017-08-27T12:13:06.615Z,11.03
2017-08-27T12:15:34.178Z,10.57
2017-08-27T12:18:01.715Z,11.70
2017-08-27T12:20:29.271Z,11.93
2017-08-27T12:22:56.802Z,11.00
2017-08-27T12:25:24.359Z,10.13
2017-08-27T12:27:51.907Z,10.37
2017-08-27T12:30:19.452Z,9.57
2017-08-27T12:32:46.980Z,9.60
2017-08-27T12:35:14.526Z,10.30
2017-08-27T12:37:42.055Z,10.83
2017-08-27T12:40:09.626Z,10.50
2017-08-27T12:42:37.159Z,11.23
2017-08-27T12:45:04.698Z,11.13
2017-08-27T12:47:32.259Z,10.93
2017-08-27T12:49:59.807Z,12.13
2017-08-27T12:52:27.374Z,11.80
2017-08-27T12:54:54.913Z,12.93
2017-08-27T12:57:22.474Z,12.67
2017-08-27T12:59:50.014Z,11.40
2017-08-27T13:02:17.582Z,12.27
2017-08-27T13:04:45.115Z,10.83
2017-08-27T13:07:12.672Z,11.20
2017-08-27T13:09:40.203Z,10.70
2017-08-27T13:12:07.763Z,11.57
2017-08-27T13:14:35.297Z,9.90
2017-08-27T13:17:02.849Z,11.47
2017-08-27T13:19:30.392Z,11.37
2017-08-27T13:21:57.949Z,11.33
2017-08-27T13:24:25.478Z,11.10
2017-08-27T13:26:53.039Z,10.50
2017-08-27T13:29:20.576Z,10.27
2017-08-27T13:31:48.137Z,11.20
2017-08-27T13:34:15.672Z,11.33
2017-08-27T13:36:43.228Z,11.13
2017-08-27T13:39:10.764Z,11.47
2017-08-27T13:41:38.327Z,9.80
2017-08-27T13:44:05.857Z,11.10
2017-08-27T13:46:33.385Z,11.40
2017-08-27T13:49:00.943Z,10.30
2017-08-27T13:51:28.476Z,10.60
2017-08-27T13:53:56.030Z,11.03
2017-08-27T13:56:23.550Z,9.70
2017-08-27T13:58:51.101Z,10.37
2017-08-27T14:01:18.636Z,11.17
2017-08-27T14:03:46.198Z,10.57
2017-08-27T14:06:13.735Z,10.07
2017-08-27T14:08:41.281Z,10.80
2017-08-27T14:11:08.816Z,10.60
2017-08-27T14:13:36.376Z,10.60
2017-08-27T14:16:03.906Z,9.47
2017-08-27T14:18:31.460Z,10.87
2017-08-27T14:20:58.989Z,10.17
2017-08-27T14:23:26.538Z,10.90
2017-08-27T14:25:54.067Z,11.33
2017-08-27T14:28:21.630Z,11.00
2017-08-27T14:30:49.158Z,10.57
2017-08-27T14:33:16.716Z,10.40
2017-08-27T14:35:44.248Z,10.90
2017-08-27T14:38:11.799Z,11.43
2017-08-27T14:40:39.331Z,10.67
2017-08-27T14:43:06.882Z,11.43
2017-08-27T14:45:34.410Z,11.37
2017-08-27T14:48:01.978Z,11.30
2017-08-27T14:50:29.514Z,10.90
2017-08-27T14:52:57.038Z,12.70
2017-08-27T14:55:24.587Z,11.93
2017-08-27T14:57:52.114Z,12.17
2017-08-27T15:00:19.667Z,12.30
2017-08-27T15:02:47.198Z,12.07
2017-08-27T15:05:14.771Z,11.33
2017-08-27T15:07:42.301Z,11.90
2017-08-27T15:10:09.859Z,11.10
2017-08-27T15:12:37.390Z,10.50
2017-08-27T15:15:04.943Z,11.27
2017-08-27T15:17:32.490Z,11.60
2017-08-27T15:20:00.038Z,10.17
2017-08-27T15:22:27.565Z,11.50
2017-08-27T15:24:55.123Z,12.33
2017-08-27T15:27:22.651Z,10.90
2017-08-27T15:29:50.202Z,11.23
2017-08-27T15:32:17.748Z,11.30
2017-08-27T15:34:45.298Z,10.90
2017-08-27T15:37:12.822Z,11.60
2017-08-27T15:39:40.378Z,11.53
2017-08-27T15:42:07.906Z,10.63
2017-08-27T15:44:35.471Z,10.60
2017-08-27T15:47:03.008Z,11.70
2017-08-27T15:49:30.543Z,11.70
2017-08-27T15:51:58.106Z,10.53
2017-08-27T15:54:25.635Z,11.17
2017-08-27T15:56:53.190Z,10.60
2017-08-27T15:59:20.721Z,10.20
2017-08-27T16:01:48.266Z,9.97
2017-08-27T16:04:15.798Z,10.33
2017-08-27T16:06:43.349Z,10.67
2017-08-27T16:09:10.888Z,9.60
2017-08-27T16:11:38.439Z,10.23
2017-08-27T16:14:05.980Z,10.07
2017-08-27T16:16:33.538Z,9.67
2017-08-27T16:19:01.067Z,10.67
2017-08-27T16:21:28.626Z,10.40
2017-08-27T16:23:56.154Z,9.97
2017-08-27T16:26:23.710Z,9.60
2017-08-27T16:28:51.237Z,9.20
2017-08-27T16:31:18.794Z,9.90
2017-08-27T16:33:46.329Z,10.40
2017-08-27T16:36:13.889Z,10.03
2017-08-27T16:38:41.419Z,9.30
2017-08-27T16:41:08.972Z,10.60
2017-08-27T16:43:36.498Z,9.63
2017-08-27T16:46:04.053Z,9.97
2017-08-27T16:48:31.589Z,10.40
2017-08-27T16:50:59.169Z,9.90
2017-08-27T16:53:26.699Z,9.70
2017-08-27T16:55:54.228Z,9.53
2017-08-27T16:58:21.778Z,9.43
2017-08-27T17:00:49.303Z,9.67
2017-08-27T17:03:16.858Z,10.10
2017-08-27T17:05:44.403Z,9.67
2017-08-27T17:08:11.967Z,9.63
2017-08-27T17:10:39.494Z,9.83
2017-08-27T17:13:07.054Z,10.50
2017-08-27T17:15:34.586Z,9.30
2017-08-27T17:18:02.152Z,10.53
2017-08-27T17:20:29.687Z,11.07
2017-08-27T17:22:57.239Z,10.00
2017-08-27T17:25:24.773Z,11.07
2017-08-27T17:27:52.343Z,11.40
2017-08-27T17:30:19.889Z,10.30
2017-08-27T17:32:47.455Z,11.47
2017-08-27T17:35:14.983Z,9.93
2017-08-27T17:37:42.547Z,10.20
2017-08-27T17:40:10.075Z,10.57
2017-08-27T17:42:37.642Z,10.17
2017-08-27T17:45:05.176Z,11.77
2017-08-27T17:47:32.742Z,10.20
2017-08-27T17:50:00.271Z,10.90
2017-08-27T17:52:27.822Z,10.87
2017-08-27T17:54:55.378Z,10.47
2017-08-27T17:57:22.919Z,11.20
2017-08-27T17:59:50.479Z,10.77
2017-08-27T18:02:18.011Z,10.60
2017-08-27T18:04:45.580Z,11.73
2017-08-27T18:07:13.114Z,10.37
2017-08-27T18:09:40.672Z,11.00
2017-08-27T18:12:08.198Z,10.60
2017-08-27T18:14:35.746Z,11.00
2017-08-27T18:17:03.282Z,10.80
2017-08-27T18:19:30.837Z,11.80
2017-08-27T18:21:58.379Z,11.87
2017-08-27T18:24:25.939Z,11.30
2017-08-27T18:26:53.463Z,12.83
2017-08-27T18:29:21.027Z,11.87
2017-08-27T18:31:48.562Z,13.10
2017-08-27T18:34:16.795Z,11.93
2017-08-27T18:36:46.146Z,12.23
2017-08-27T18:39:14.762Z,13.60
2017-08-27T18:41:43.314Z,11.90
2017-08-27T18:44:10.874Z,14.17
2017-08-27T18:46:38.422Z,12.87
2017-08-27T18:49:06.015Z,13.53
2017-08-27T18:51:33.554Z,13.23
2017-08-27T18:54:01.106Z,12.03
2017-08-27T18:56:28.650Z,13.30
2017-08-27T18:58:56.178Z,13.23
2017-08-27T19:01:23.734Z,14.23
2017-08-27T19:03:57.035Z,13.33
2017-08-27T19:06:24.591Z,13.80
2017-08-27T19:08:52.132Z,12.83
2017-08-27T19:11:19.689Z,15.07
2017-08-27T19:13:47.231Z,14.07
2017-08-27T19:16:14.795Z,16.33
2017-08-27T19:18:42.345Z,14.37
2017-08-27T19:21:09.908Z,13.40
2017-08-27T19:23:37.447Z,14.10
2017-08-27T19:26:05.016Z,13.77
2017-08-27T19:28:32.553Z,14.80
2017-08-27T19:31:00.128Z,14.63
2017-08-27T19:33:27.670Z,15.80
2017-08-27T19:35:55.230Z,14.30
2017-08-27T19:38:22.767Z,14.37
2017-08-27T19:40:50.351Z,15.00
2017-08-27T19:43:17.892Z,14.17
2017-08-27T19:45:45.458Z,14.97
2017-08-27T19:48:12.987Z,14.53
2017-08-27T19:50:40.546Z,15.77
2017-08-27T19:53:08.089Z,13.70
2017-08-27T19:55:35.711Z,15.13
2017-08-27T19:58:03.288Z,13.97
2017-08-27T20:00:30.830Z,14.20
2017-08-27T20:02:58.412Z,13.87
2017-08-27T20:05:25.948Z,15.60
2017-08-27T20:07:53.514Z,13.10
2017-08-27T20:10:21.052Z,15.10
2017-08-27T20:12:48.618Z,15.43
2017-08-27T20:15:16.151Z,14.57
2017-08-27T20:17:43.710Z,14.73
2017-08-27T20:20:11.242Z,15.37
2017-08-27T20:22:38.818Z,15.60
2017-08-27T20:25:06.347Z,15.30
2017-08-27T20:27:33.903Z,15.17
2017-08-27T20:30:01.436Z,15.27
2017-08-27T20:32:28.994Z,14.43
2017-08-27T20:34:56.527Z,15.50
2017-08-27T20:37:24.103Z,15.63
2017-08-27T20:39:51.654Z,15.57
2017-08-27T20:42:19.223Z,15.80
2017-08-27T20:44:46.756Z,16.27
2017-08-27T20:47:14.326Z,15.33
2017-08-27T20:49:41.862Z,16.13
2017-08-27T20:52:09.419Z,16.03
2017-08-27T20:54:36.960Z,14.53
2017-08-27T20:57:04.540Z,16.83
2017-08-27T20:59:32.084Z,18.30
2017-08-27T21:01:59.628Z,16.90
2017-08-27T21:04:27.184Z,16.10
2017-08-27T21:06:54.731Z,17.17
2017-08-27T21:09:22.304Z,17.10
2017-08-27T21:11:49.836Z,16.40
2017-08-27T21:14:17.399Z,18.40
2017-08-27T21:16:44.931Z,17.03
2017-08-27T21:19:12.490Z,17.87
2017-08-27T21:21:40.021Z,17.70
2017-08-27T21:24:07.571Z,17.07
2017-08-27T21:26:35.103Z,16.80
2017-08-27T21:29:02.665Z,19.50
2017-08-27T21:31:30.203Z,21.30
2017-08-27T21:33:57.764Z,17.67
2017-08-27T21:36:25.306Z,18.30
2017-08-27T21:38:52.863Z,17.77
2017-08-27T21:41:20.390Z,20.07
2017-08-27T21:43:47.940Z,20.03
2017-08-27T21:46:15.475Z,17.63
2017-08-27T21:48:43.083Z,17.70
2017-08-27T21:51:10.613Z,16.93
2017-08-27T21:53:38.172Z,16.57
2017-08-27T21:56:05.706Z,17.03
2017-08-27T21:58:33.274Z,16.00
2017-08-27T22:01:00.815Z,17.40
2017-08-27T22:03:28.352Z,16.97
2017-08-27T22:05:55.917Z,18.53
2017-08-27T22:08:23.446Z,17.70
2017-08-27T22:10:51.010Z,19.07
2017-08-27T22:13:18.556Z,19.20
2017-08-27T22:15:46.115Z,18.90
2017-08-27T22:18:13.650Z,17.87
2017-08-27T22:20:41.213Z,19.70
2017-08-27T22:23:08.742Z,17.80
2017-08-27T22:25:36.324Z,19.77
2017-08-27T22:28:03.863Z,18.53
2017-08-27T22:51:05.287Z,24.40
2017-08-27T22:53:32.823Z,23.93
2017-08-27T22:56:00.373Z,22.80
2017-08-27T22:58:27.911Z,21.83
2017-08-27T23:00:55.462Z,23.80
2017-08-27T23:03:22.998Z,21.70
2017-08-27T23:05:50.560Z,20.53
2017-08-27T23:08:18.087Z,21.67
2017-08-27T23:10:45.642Z,21.70
2017-08-27T23:13:13.170Z,20.83
2017-08-27T23:15:40.731Z,20.07
2017-08-27T23:18:08.503Z,21.37
2017-08-27T23:20:36.069Z,21.50
2017-08-27T23:23:03.624Z,24.23
2017-08-27T23:25:31.159Z,24.27
2017-08-27T23:27:58.728Z,21.23
2017-08-27T23:30:26.276Z,20.80
2017-08-27T23:32:53.830Z,21.87
2017-08-27T23:35:21.383Z,22.70
2017-08-27T23:37:48.940Z,23.20
2017-08-27T23:40:16.489Z,25.80
2017-08-27T23:42:44.037Z,26.47
2017-08-27T23:45:11.570Z,24.60
2017-08-27T23:47:39.148Z,25.13
2017-08-27T23:50:06.683Z,25.13
2017-08-27T23:52:34.246Z,26.67
2017-08-27T23:55:01.774Z,28.80
2017-08-27T23:57:29.321Z,25.30
2017-08-27T23:59:56.862Z,28.73
